Time;durP1;ratioP1;P1;durP2;ratioP2;P2;SDS_P1;SDS_P2;PMS_P1;PMS_P2;Temp;Humidity;BMP_temperature;BMP_pressure;BME280_temperature;BME280_humidity;BME280_pressure;Samples;Min_cycle;Max_cycle;Signal;HPM_P1;HPM_P2
2021/08/27 14:59:07;;;;;;;2.15;1.20;;;;;;;16.79;57.75;96101.47;3042698;24;20028;-86
2021/08/27 15:01:33;;;;;;;2.95;1.20;;;;;;;16.86;57.15;96102.44;4932090;29;20101;-78
2021/08/27 15:04:00;;;;;;;3.53;1.20;;;;;;;16.80;57.62;96101.13;4916816;29;20042;-78
2021/08/27 15:06:26;;;;;;;3.97;1.20;;;;;;;16.80;56.07;96092.88;4906863;29;20075;-78
2021/08/27 15:08:52;;;;;;;3.60;1.73;;;;;;;16.80;57.38;96103.06;4925121;29;20048;-77
2021/08/27 15:11:19;;;;;;;3.80;1.20;;;;;;;16.84;57.48;96101.97;4917632;29;20056;-77
2021/08/27 15:13:45;;;;;;;2.88;1.20;;;;;;;16.90;56.26;96108.78;4917388;29;20051;-77
2021/08/27 15:16:13;;;;;;;3.95;1.38;;;;;;;16.89;56.81;96095.38;4916545;29;20502;-76
2021/08/27 15:18:40;;;;;;;3.90;1.40;;;;;;;17.06;59.66;96105.91;4917368;29;20063;-76
2021/08/27 15:21:06;;;;;;;2.95;1.42;;;;;;;17.29;59.24;96100.44;4916847;29;20055;-77
2021/08/27 15:23:33;;;;;;;3.15;1.63;;;;;;;17.45;56.39;96101.09;4918779;29;20059;-80
2021/08/27 15:25:59;;;;;;;2.88;1.05;;;;;;;17.51;55.63;96100.78;4917809;29;20059;-76
2021/08/27 15:28:26;;;;;;;3.15;1.33;;;;;;;17.68;56.81;96097.50;4916574;29;20571;-76
2021/08/27 15:30:52;;;;;;;3.30;1.50;;;;;;;17.64;55.40;96110.41;4916863;29;20051;-76
2021/08/27 15:33:20;;;;;;;2.25;1.20;;;;;;;17.54;55.78;96103.59;4916023;29;20059;-76
2021/08/27 15:35:48;;;;;;;3.15;1.40;;;;;;;17.57;55.58;96113.06;4917109;29;20095;-76
2021/08/27 15:38:16;;;;;;;3.22;1.52;;;;;;;17.60;56.33;96101.31;4916335;29;20077;-76
2021/08/27 15:40:42;;;;;;;3.13;1.20;;;;;;;17.55;54.95;96096.13;4916698;29;20055;-77
2021/08/27 15:43:09;;;;;;;2.88;1.08;;;;;;;17.56;55.97;96101.25;4916279;29;20051;-76
2021/08/27 15:45:35;;;;;;;2.75;1.15;;;;;;;17.54;54.72;96097.28;4916737;29;20056;-77
2021/08/27 15:48:01;;;;;;;5.13;1.40;;;;;;;17.38;54.39;96095.47;4916784;29;20052;-77
2021/08/27 15:50:29;;;;;;;2.20;1.17;;;;;;;17.47;57.10;96100.72;4954959;28;20051;-76
2021/08/27 15:52:56;;;;;;;2.63;1.40;;;;;;;17.63;54.11;96100.56;4954923;28;20051;-76
2021/08/27 15:55:22;;;;;;;2.47;1.23;;;;;;;17.76;56.56;96104.75;4956424;28;20051;-78
2021/08/27 15:57:50;;;;;;;2.35;1.10;;;;;;;17.93;54.29;96101.47;4955650;28;20074;-79
2021/08/27 16:00:17;;;;;;;2.30;1.05;;;;;;;18.02;53.87;96100.41;4954656;28;20134;-78
2021/08/27 16:02:43;;;;;;;2.15;1.10;;;;;;;17.97;53.58;96094.03;4955577;28;20063;-78
2021/08/27 16:05:10;;;;;;;3.83;1.35;;;;;;;17.85;52.89;96097.00;4960267;28;20047;-79
2021/08/27 16:07:39;;;;;;;3.10;1.10;;;;;;;17.68;53.33;96100.25;4955164;28;20084;-78
2021/08/27 16:10:07;;;;;;;4.03;1.30;;;;;;;17.53;54.51;96101.19;4954416;28;20051;-79
2021/08/27 16:12:34;;;;;;;2.38;1.40;;;;;;;17.34;55.57;96100.13;4954835;28;20062;-79
2021/08/27 16:15:01;;;;;;;2.08;1.30;;;;;;;17.24;56.23;96106.25;4954755;28;20126;-79
2021/08/27 16:17:28;;;;;;;3.13;1.10;;;;;;;17.15;56.59;96105.69;4954378;28;20051;-78
2021/08/27 16:19:58;;;;;;;4.00;1.60;;;;;;;16.95;57.25;96105.72;4954674;28;20051;-78
2021/08/27 16:22:25;;;;;;;4.28;1.70;;;;;;;16.93;57.29;96113.56;4953960;28;20078;-79
2021/08/27 16:24:54;;;;;;;5.47;1.52;;;;;;;16.88;57.90;96111.09;4954206;28;20047;-78
2021/08/27 16:27:20;;;;;;;3.30;1.35;;;;;;;16.82;58.85;96114.53;4953961;28;20055;-77
2021/08/27 16:29:47;;;;;;;3.05;1.52;;;;;;;16.73;59.21;96111.19;4954401;28;20525;-78
2021/08/27 16:32:14;;;;;;;3.63;1.42;;;;;;;16.73;60.15;96108.44;4954208;28;20054;-78
2021/08/27 16:34:40;;;;;;;3.42;1.42;;;;;;;16.74;60.56;96102.56;4954590;28;20051;-79
2021/08/27 16:37:06;;;;;;;3.55;1.40;;;;;;;16.62;59.94;96098.00;4954598;28;20054;-78
2021/08/27 16:39:33;;;;;;;2.42;1.40;;;;;;;16.62;59.90;96106.25;4955418;28;20051;-78
2021/08/27 16:42:01;;;;;;;2.08;1.23;;;;;;;16.54;59.99;96103.72;4955528;28;20063;-78
2021/08/27 16:44:27;;;;;;;4.20;1.30;;;;;;;16.50;60.70;96100.91;4955928;28;20391;-78
2021/08/27 16:46:54;;;;;;;1.90;1.10;;;;;;;16.47;59.39;96100.84;4955350;28;20467;-77
2021/08/27 16:49:20;;;;;;;2.45;1.20;;;;;;;16.48;59.47;96107.91;4954400;28;20050;-78
2021/08/27 16:51:47;;;;;;;2.92;1.17;;;;;;;16.47;58.81;96095.34;4954952;28;20054;-78
2021/08/27 16:54:14;;;;;;;2.58;1.10;;;;;;;16.52;58.25;96100.53;4954360;28;20054;-79
2021/08/27 16:56:41;;;;;;;2.85;1.38;;;;;;;16.49;58.77;96106.75;4955554;28;20115;-79
2021/08/27 16:59:09;;;;;;;4.13;1.48;;;;;;;16.49;58.53;96101.25;4956728;28;20420;-78
2021/08/27 17:01:36;;;;;;;2.72;1.17;;;;;;;16.47;59.50;96100.84;4956676;28;20115;-78
2021/08/27 17:04:02;;;;;;;2.92;1.20;;;;;;;16.48;58.97;96107.91;4958308;28;20668;-78
2021/08/27 17:06:29;;;;;;;2.40;1.13;;;;;;;16.44;58.42;96103.16;4957907;28;20433;-79
2021/08/27 17:08:55;;;;;;;1.92;1.27;;;;;;;16.42;59.08;96105.47;4955471;28;20402;-77
2021/08/27 17:11:22;;;;;;;1.67;1.00;;;;;;;16.42;57.97;96110.94;4954950;28;20055;-79
2021/08/27 17:13:48;;;;;;;2.55;1.00;;;;;;;16.33;58.88;96112.31;4955226;28;20043;-78
2021/08/27 17:16:16;;;;;;;2.50;1.10;;;;;;;16.34;60.07;96114.72;4954649;28;20055;-79
2021/08/27 17:18:42;;;;;;;3.28;1.30;;;;;;;16.29;59.44;96109.53;4954042;28;20059;-79
2021/08/27 17:21:09;;;;;;;2.65;1.10;;;;;;;16.28;60.04;96115.34;4968596;28;20051;-78
2021/08/27 17:23:35;;;;;;;3.83;1.33;;;;;;;16.24;60.61;96109.81;4971674;28;20058;-78
2021/08/27 17:26:02;;;;;;;2.63;1.40;;;;;;;16.25;61.25;96111.38;4969439;28;20047;-79
2021/08/27 17:28:29;;;;;;;3.03;1.38;;;;;;;16.22;60.94;96112.09;4959449;28;20134;-79
2021/08/27 17:30:55;;;;;;;3.35;1.27;;;;;;;16.20;61.58;96108.94;4951081;28;20059;-78
2021/08/27 17:33:23;;;;;;;3.47;1.20;;;;;;;16.17;62.00;96110.44;4950256;28;20047;-80
2021/08/27 17:35:50;;;;;;;2.33;1.15;;;;;;;16.14;61.54;96107.63;4950659;28;20054;-78
2021/08/27 17:38:16;;;;;;;2.60;1.10;;;;;;;16.14;61.73;96113.13;4950249;28;20407;-80
2021/08/27 17:40:43;;;;;;;1.38;0.90;;;;;;;16.09;62.35;96116.94;4950443;28;20062;-79
2021/08/27 17:43:10;;;;;;;2.28;1.30;;;;;;;16.06;62.62;96119.59;4949918;28;20059;-78
2021/08/27 17:45:36;;;;;;;2.92;1.20;;;;;;;16.02;63.05;96125.00;4951081;28;20078;-78
2021/08/27 17:48:03;;;;;;;3.70;1.33;;;;;;;15.97;64.48;96127.22;4950495;28;20054;-78
2021/08/27 17:50:31;;;;;;;2.00;1.20;;;;;;;15.90;64.80;96123.19;4942351;28;20051;-77
2021/08/27 17:52:57;;;;;;;11.35;1.50;;;;;;;15.83;64.52;96125.78;4950220;28;20047;-79
2021/08/27 17:55:24;;;;;;;5.55;1.40;;;;;;;15.80;64.69;96136.66;4931781;28;20138;-79
2021/08/27 17:57:51;;;;;;;3.50;1.23;;;;;;;15.74;63.71;96136.13;4950166;28;20055;-78
2021/08/27 18:00:18;;;;;;;4.22;1.40;;;;;;;15.71;64.89;96131.34;4949096;28;20410;-78
2021/08/27 18:02:44;;;;;;;3.90;1.50;;;;;;;15.71;65.01;96142.34;4951047;28;20521;-78
2021/08/27 18:05:11;;;;;;;4.07;1.80;;;;;;;15.69;65.86;96144.66;4950017;28;20055;-78
2021/08/27 18:07:39;;;;;;;4.90;1.83;;;;;;;15.67;66.23;96146.97;4951266;28;20066;-78
2021/08/27 18:10:06;;;;;;;2.45;1.73;;;;;;;15.68;66.40;96159.53;4949937;28;20055;-78
2021/08/27 18:12:33;;;;;;;2.63;1.50;;;;;;;15.68;67.36;96154.03;4952694;28;20058;-77
2021/08/27 18:14:59;;;;;;;4.30;1.50;;;;;;;15.66;67.03;96161.84;4950130;28;20054;-79
2021/08/27 18:17:27;;;;;;;3.50;1.70;;;;;;;15.64;66.11;96161.38;4935073;29;20051;-79
2021/08/27 18:19:54;;;;;;;3.70;1.73;;;;;;;15.64;66.27;96153.94;4937385;29;20058;-79
2021/08/27 18:22:20;;;;;;;3.40;1.73;;;;;;;15.66;66.36;96164.59;4933393;29;20059;-78
2021/08/27 18:24:48;;;;;;;3.28;1.85;;;;;;;15.65;66.09;96154.75;4933754;29;20073;-77
2021/08/27 18:27:14;;;;;;;3.15;1.75;;;;;;;15.66;66.63;96161.84;4934241;29;20047;-77
2021/08/27 18:29:41;;;;;;;4.72;1.50;;;;;;;15.71;63.94;96163.50;4934508;29;20514;-78
2021/08/27 18:32:08;;;;;;;3.28;1.70;;;;;;;15.69;63.64;96166.59;4933659;29;20064;-77
2021/08/27 18:34:34;;;;;;;3.60;1.50;;;;;;;15.71;64.33;96164.28;4934638;29;20051;-78
2021/08/27 18:37:01;;;;;;;5.30;2.00;;;;;;;15.67;64.89;96171.66;4935733;29;20062;-78
2021/08/27 18:39:27;;;;;;;2.90;1.90;;;;;;;15.62;65.16;96171.91;4937509;29;20511;-78
2021/08/27 18:41:55;;;;;;;2.60;1.60;;;;;;;15.60;65.65;96179.69;4937849;29;20051;-78
2021/08/27 18:44:23;;;;;;;3.55;1.50;;;;;;;15.59;64.99;96175.34;4936952;29;20055;-79
2021/08/27 18:46:50;;;;;;;3.20;1.95;;;;;;;15.56;65.56;96181.56;4952699;29;20051;-79
2021/08/27 18:49:16;;;;;;;2.03;1.45;;;;;;;15.56;64.79;96182.34;4955157;29;20047;-79
2021/08/27 18:51:42;;;;;;;7.35;1.90;;;;;;;15.54;65.13;96178.34;4960614;29;20062;-79
2021/08/27 18:54:09;;;;;;;3.17;1.70;;;;;;;15.52;64.63;96178.72;4953999;29;20064;-77
2021/08/27 18:56:35;;;;;;;2.97;1.67;;;;;;;15.51;65.18;96185.38;4953206;29;20058;-78
2021/08/27 18:59:03;;;;;;;4.00;1.63;;;;;;;15.48;65.10;96182.53;4952947;28;20059;-78
2021/08/27 19:01:31;;;;;;;3.67;1.70;;;;;;;15.43;64.87;96185.53;4953416;29;20055;-78
2021/08/27 19:03:58;;;;;;;3.50;1.50;;;;;;;15.34;65.07;96189.22;4952843;29;20086;-78
2021/08/27 19:06:24;;;;;;;3.97;1.67;;;;;;;15.29;65.58;96192.22;4952808;29;20078;-77
2021/08/27 19:08:51;;;;;;;4.82;1.90;;;;;;;15.24;65.07;96195.22;4952870;28;20043;-77
2021/08/27 19:11:18;;;;;;;5.10;1.58;;;;;;;15.17;64.91;96195.03;4953023;29;20062;-78
2021/08/27 19:13:44;;;;;;;4.25;1.95;;;;;;;15.12;65.33;96198.84;4953431;29;20062;-78
2021/08/27 19:16:12;;;;;;;4.00;1.83;;;;;;;15.10;65.24;96192.91;4951934;29;20051;-79
2021/08/27 19:18:38;;;;;;;3.90;1.80;;;;;;;15.05;65.11;96206.09;4953729;29;20063;-78
2021/08/27 19:21:06;;;;;;;5.30;1.83;;;;;;;15.03;65.69;96200.94;4952910;29;20051;-78
2021/08/27 19:23:32;;;;;;;4.80;1.70;;;;;;;15.04;65.81;96197.06;4952742;28;20062;-78
2021/08/27 19:25:59;;;;;;;4.63;2.35;;;;;;;15.07;65.00;96203.78;4952392;29;20055;-79
2021/08/27 19:28:26;;;;;;;3.20;1.63;;;;;;;15.07;65.26;96201.03;4951450;28;20051;-77
2021/08/27 19:30:52;;;;;;;6.25;2.15;;;;;;;15.11;65.67;96190.97;4952940;28;20059;-78
2021/08/27 19:33:20;;;;;;;5.03;1.90;;;;;;;15.11;65.24;96197.25;4951749;29;20055;-78
2021/08/27 19:35:47;;;;;;;4.13;1.80;;;;;;;15.16;65.37;96198.94;4953104;29;20136;-78
2021/08/27 19:38:13;;;;;;;4.88;1.95;;;;;;;15.23;64.82;96199.13;4954678;29;20073;-77
2021/08/27 19:40:40;;;;;;;3.95;2.25;;;;;;;15.26;64.64;96203.91;4954089;28;20062;-78
2021/08/27 19:43:07;;;;;;;5.22;2.00;;;;;;;15.28;64.78;96201.59;4951039;28;20051;-78
2021/08/27 19:45:34;;;;;;;2.25;1.90;;;;;;;15.23;65.41;96201.88;4954564;29;20066;-78
2021/08/27 19:48:00;;;;;;;3.88;2.10;;;;;;;15.18;65.40;96201.31;4961401;29;20047;-78
2021/08/27 19:50:28;;;;;;;4.97;1.92;;;;;;;15.14;65.84;96201.25;4953824;29;20690;-77
2021/08/27 19:52:56;;;;;;;4.22;2.20;;;;;;;15.09;65.97;96199.56;4953378;29;20066;-77
2021/08/27 19:55:22;;;;;;;7.07;2.05;;;;;;;15.12;66.61;96206.28;4952937;29;20050;-78
2021/08/27 19:57:49;;;;;;;5.00;2.17;;;;;;;15.13;66.58;96199.63;4973202;23;20047;-75
2021/08/27 20:00:16;;;;;;;4.38;1.90;;;;;;;15.12;66.87;96198.84;4932332;29;20055;-73
2021/08/27 20:02:42;;;;;;;3.58;2.17;;;;;;;15.17;68.23;96203.28;4932582;29;20418;-73
2021/08/27 20:05:09;;;;;;;4.65;2.50;;;;;;;15.13;69.03;96205.13;4932121;29;20055;-73
2021/08/27 20:07:37;;;;;;;4.93;2.33;;;;;;;15.08;70.31;96199.88;4932074;29;20060;-73
2021/08/27 20:10:05;;;;;;;5.70;2.63;;;;;;;15.01;70.64;96205.19;4931989;29;20052;-74
2021/08/27 20:12:31;;;;;;;4.50;2.65;;;;;;;14.94;70.70;96202.25;4924544;29;20059;-73
2021/08/27 20:14:58;;;;;;;4.20;2.38;;;;;;;14.92;70.86;96204.53;4931266;29;20054;-73
2021/08/27 20:17:24;;;;;;;2.95;2.20;;;;;;;14.93;71.15;96197.91;4950978;29;20054;-72
2021/08/27 20:19:51;;;;;;;4.90;2.47;;;;;;;14.91;71.11;96201.00;4950580;29;20070;-73
2021/08/27 20:22:17;;;;;;;7.70;2.50;;;;;;;14.88;70.76;96210.75;4950810;29;20426;-74
2021/08/27 20:24:45;;;;;;;5.65;2.50;;;;;;;14.88;71.31;96194.28;4954138;29;20047;-73
2021/08/27 20:27:12;;;;;;;4.22;2.40;;;;;;;14.88;70.83;96199.78;4953390;29;20047;-73
2021/08/27 20:29:38;;;;;;;5.22;2.67;;;;;;;14.92;70.49;96199.84;4954004;29;20055;-73
2021/08/27 20:32:05;;;;;;;4.88;2.63;;;;;;;14.94;70.64;96194.03;4953695;29;20062;-73
2021/08/27 20:34:32;;;;;;;3.45;2.38;;;;;;;14.95;70.91;96203.84;4953399;28;20055;-73
2021/08/27 20:36:59;;;;;;;5.40;2.50;;;;;;;14.96;69.64;96194.47;4954088;29;20413;-73
2021/08/27 20:39:25;;;;;;;5.50;2.67;;;;;;;14.94;69.35;96197.56;4953950;29;20051;-73
2021/08/27 20:41:53;;;;;;;4.95;2.50;;;;;;;14.93;68.93;96203.38;4954164;29;20047;-75
2021/08/27 20:44:20;;;;;;;6.68;2.50;;;;;;;14.87;68.79;96198.16;4953460;29;20050;-73
2021/08/27 20:46:46;;;;;;;5.05;2.50;;;;;;;14.85;68.88;96197.72;4953952;29;20074;-73
2021/08/27 20:49:12;;;;;;;5.35;3.00;;;;;;;14.83;68.64;96196.47;4953538;29;20442;-73
2021/08/27 20:51:39;;;;;;;4.75;2.45;;;;;;;14.81;68.61;96199.56;4953962;29;20736;-73
2021/08/27 20:54:05;;;;;;;5.22;2.55;;;;;;;14.79;69.12;96206.53;4953370;29;20051;-73
2021/08/27 20:56:32;;;;;;;4.07;2.40;;;;;;;14.78;68.92;96204.97;4953977;29;20051;-73
2021/08/27 20:59:00;;;;;;;6.78;2.60;;;;;;;14.77;69.67;96206.91;4953631;29;20050;-73
2021/08/27 21:01:26;;;;;;;3.95;2.70;;;;;;;14.76;70.05;96201.75;4952512;29;20054;-73
2021/08/27 21:03:53;;;;;;;6.60;2.78;;;;;;;14.78;69.45;96203.00;4953642;29;20051;-74
2021/08/27 21:06:19;;;;;;;6.35;2.80;;;;;;;14.79;69.21;96199.13;4952945;29;20055;-73
2021/08/27 21:08:46;;;;;;;4.28;2.53;;;;;;;14.79;69.12;96201.84;4953576;29;20058;-73
2021/08/27 21:11:12;;;;;;;4.40;2.85;;;;;;;14.82;69.01;96206.63;4952187;29;20058;-75
2021/08/27 21:13:39;;;;;;;4.55;2.85;;;;;;;14.77;68.85;96204.16;4953480;29;20047;-73
2021/08/27 21:16:07;;;;;;;5.35;2.55;;;;;;;14.75;68.93;96209.19;4953166;29;20043;-73
2021/08/27 21:18:33;;;;;;;4.13;2.67;;;;;;;14.68;69.06;96206.25;4953317;29;20059;-73
2021/08/27 21:20:59;;;;;;;5.32;2.70;;;;;;;14.66;68.95;96199.50;4953417;29;20051;-73
2021/08/27 21:23:26;;;;;;;6.30;2.85;;;;;;;14.64;68.73;96204.53;4952784;29;20047;-74
2021/08/27 21:25:53;;;;;;;8.32;2.85;;;;;;;14.60;68.68;96204.44;4953400;29;20050;-74
2021/08/27 21:28:19;;;;;;;5.60;2.75;;;;;;;14.50;68.70;96196.69;4952874;29;20047;-73
2021/08/27 21:30:46;;;;;;;4.20;2.75;;;;;;;14.49;69.06;96198.63;4953221;29;20062;-73
2021/08/27 21:33:14;;;;;;;6.15;2.85;;;;;;;14.45;68.94;96196.91;4952845;29;20058;-73
2021/08/27 21:35:43;;;;;;;4.05;2.60;;;;;;;14.39;68.72;96195.56;4953262;29;20050;-75
2021/08/27 21:38:10;;;;;;;4.85;3.08;;;;;;;14.30;69.26;96201.16;4952820;29;20573;-74
2021/08/27 21:40:36;;;;;;;6.90;2.90;;;;;;;14.28;69.45;96197.97;4953322;29;20054;-73
2021/08/27 21:43:03;;;;;;;5.85;2.75;;;;;;;14.24;69.61;96186.09;4952396;29;20055;-73
2021/08/27 21:45:30;;;;;;;6.22;2.70;;;;;;;14.21;69.67;96187.63;4953137;28;20078;-73
2021/08/27 21:47:56;;;;;;;5.80;2.78;;;;;;;14.19;69.12;96195.34;4952978;29;20070;-73
2021/08/27 21:50:24;;;;;;;4.25;2.80;;;;;;;14.23;69.77;96190.78;4952634;29;20132;-74
2021/08/27 21:52:50;;;;;;;4.30;2.72;;;;;;;14.18;69.33;96185.56;4953165;29;20414;-75
2021/08/27 21:55:17;;;;;;;6.50;2.92;;;;;;;14.16;70.81;96184.31;4952479;29;20058;-74
2021/08/27 21:57:43;;;;;;;5.32;2.88;;;;;;;14.13;69.99;96191.25;4952810;29;20062;-73
2021/08/27 22:00:12;;;;;;;4.70;2.95;;;;;;;14.13;70.07;96185.78;4952219;29;20043;-73
2021/08/27 22:02:39;;;;;;;5.60;3.10;;;;;;;14.11;69.61;96185.34;4952993;29;20044;-73
2021/08/27 22:05:06;;;;;;;6.05;2.90;;;;;;;14.09;69.83;96187.63;4952384;29;20460;-73
2021/08/27 22:07:34;;;;;;;5.75;2.60;;;;;;;14.06;69.65;96186.38;4952875;29;20043;-74
2021/08/27 22:10:00;;;;;;;4.45;2.88;;;;;;;14.01;69.42;96188.56;4953222;29;20048;-73
2021/08/27 22:12:27;;;;;;;5.55;2.75;;;;;;;14.04;69.67;96187.84;4952293;29;20047;-74
2021/08/27 22:14:53;;;;;;;6.88;3.10;;;;;;;14.04;70.21;96185.09;4952769;29;20047;-73
2021/08/27 22:17:20;;;;;;;5.25;2.78;;;;;;;14.07;70.15;96184.44;4952363;29;20047;-73
2021/08/27 22:19:46;;;;;;;4.88;2.50;;;;;;;14.07;69.99;96187.97;4952662;29;20509;-73
2021/08/27 22:22:12;;;;;;;4.10;2.40;;;;;;;14.09;69.62;96176.66;4952210;29;20506;-72
2021/08/27 22:24:40;;;;;;;3.75;2.70;;;;;;;14.11;69.74;96188.09;4952839;29;20470;-72
2021/08/27 22:27:07;;;;;;;3.78;2.60;;;;;;;14.08;69.42;96184.06;4952088;29;20051;-72
2021/08/27 22:29:33;;;;;;;4.65;2.88;;;;;;;14.09;69.99;96184.88;4952380;29;20062;-73
2021/08/27 22:32:00;;;;;;;4.47;2.67;;;;;;;14.07;70.15;96187.97;4952868;29;20047;-73
2021/08/27 22:34:26;;;;;;;5.47;2.90;;;;;;;14.11;70.20;96188.09;4952367;29;20051;-73
2021/08/27 22:36:53;;;;;;;4.88;2.63;;;;;;;14.04;69.32;96190.59;4952973;29;20051;-75
2021/08/27 22:39:19;;;;;;;5.60;3.13;;;;;;;13.97;70.26;96195.84;4952385;29;20044;-73
2021/08/27 22:41:47;;;;;;;5.50;3.28;;;;;;;13.89;71.00;96189.38;4952230;29;20055;-73
2021/08/27 22:44:14;;;;;;;5.05;3.20;;;;;;;13.84;71.57;96195.06;4951893;29;20047;-73
2021/08/27 22:46:40;;;;;;;6.70;3.50;;;;;;;13.81;72.28;96191.06;4952740;29;20058;-73
2021/08/27 22:49:06;;;;;;;6.05;3.42;;;;;;;13.88;72.60;96195.97;4951887;29;20051;-73
2021/08/27 22:51:34;;;;;;;6.78;3.30;;;;;;;13.89;72.30;96194.03;4952759;29;20066;-73
2021/08/27 22:54:00;;;;;;;5.63;3.53;;;;;;;13.88;72.68;96186.94;4952532;29;20548;-73
2021/08/27 22:56:27;;;;;;;6.03;3.60;;;;;;;13.87;72.73;96183.41;4951952;29;20058;-73
2021/08/27 22:58:55;;;;;;;8.65;3.33;;;;;;;13.88;73.03;96189.69;4954765;28;20055;-73
2021/08/27 23:01:21;;;;;;;5.72;3.53;;;;;;;13.86;72.95;96181.81;4955341;29;20059;-74
2021/08/27 23:03:48;;;;;;;6.07;3.40;;;;;;;13.88;72.44;96178.75;4955783;29;20050;-73
2021/08/27 23:06:14;;;;;;;7.18;3.67;;;;;;;13.90;72.71;96188.22;4955442;29;20060;-73
2021/08/27 23:08:40;;;;;;;4.60;3.00;;;;;;;13.92;72.98;96180.44;4955729;29;20146;-74
2021/08/27 23:11:07;;;;;;;6.43;3.35;;;;;;;13.92;72.85;96176.91;4954913;29;20058;-73
2021/08/27 23:13:33;;;;;;;6.47;3.60;;;;;;;13.91;72.83;96178.06;4955744;29;20043;-73
2021/08/27 23:16:01;;;;;;;6.18;3.53;;;;;;;13.87;73.53;96185.34;4955692;29;20047;-73
2021/08/27 23:18:28;;;;;;;4.75;3.88;;;;;;;13.84;73.58;96184.91;4954901;29;20070;-73
2021/08/27 23:20:54;;;;;;;6.32;3.70;;;;;;;13.80;73.50;96178.53;4955639;29;20054;-73
2021/08/27 23:23:21;;;;;;;5.57;3.63;;;;;;;13.80;74.08;96173.06;4953391;29;20043;-73
2021/08/27 23:25:47;;;;;;;6.53;3.83;;;;;;;13.83;73.94;96182.50;4954359;29;20122;-73
2021/08/27 23:28:13;;;;;;;6.05;3.67;;;;;;;13.88;73.54;96184.22;4954980;29;20043;-73
2021/08/27 23:30:40;;;;;;;5.50;3.85;;;;;;;13.87;73.78;96174.41;4955256;29;20059;-74
2021/08/27 23:33:08;;;;;;;6.80;4.45;;;;;;;13.89;73.86;96174.88;4954814;29;20102;-73
2021/08/27 23:35:34;;;;;;;6.80;3.83;;;;;;;13.91;73.69;96167.13;4955435;29;20110;-73
2021/08/27 23:38:00;;;;;;;7.80;4.30;;;;;;;13.86;73.80;96172.81;4955072;29;20054;-73
2021/08/27 23:40:27;;;;;;;7.07;4.47;;;;;;;13.77;74.15;96173.72;4954677;29;20051;-73
2021/08/27 23:42:53;;;;;;;10.00;4.43;;;;;;;13.67;75.13;96179.66;4954577;29;20054;-73
2021/08/27 23:45:20;;;;;;;6.47;4.68;;;;;;;13.58;75.56;96187.19;4954686;29;20053;-73
2021/08/27 23:47:46;;;;;;;8.50;4.53;;;;;;;13.50;76.71;96183.41;4955176;29;20234;-73
2021/08/27 23:50:14;;;;;;;6.15;4.47;;;;;;;13.31;78.22;96175.78;4954305;29;20063;-74
2021/08/27 23:52:40;;;;;;;8.63;4.72;;;;;;;13.07;79.49;96190.16;4955136;29;20043;-73
2021/08/27 23:55:08;;;;;;;7.95;4.93;;;;;;;12.97;80.85;96181.59;4954382;29;20055;-73
2021/08/27 23:57:34;;;;;;;10.27;4.72;;;;;;;12.82;81.70;96177.53;4954541;29;20422;-73
